Time;durP1;ratioP1;P1;durP2;ratioP2;P2;SDS_P1;SDS_P2;PMS_P1;PMS_P2;Temp;Humidity;BMP_temperature;BMP_pressure;BME280_temperature;BME280_humidity;BME280_pressure;Samples;Min_cycle;Max_cycle;Signal;HPM_P1;HPM_P2
2021/03/15 00:00:25;;;;;;;3.10;1.67;;;;;;;10.31;100.00;101485.20;1841194;76;936637;-80
2021/03/15 00:02:55;;;;;;;8.00;2.07;;;;;;;10.30;100.00;101481.33;1829298;76;935728;-79
2021/03/15 00:05:27;;;;;;;6.47;2.20;;;;;;;10.32;100.00;101479.94;1841018;76;936609;-76
2021/03/15 00:07:58;;;;;;;5.80;1.50;;;;;;;10.13;100.00;101477.30;1829348;76;936594;-76
2021/03/15 00:10:38;;;;;;;4.47;1.70;;;;;;;10.15;100.00;101482.56;1841292;76;936558;-76
2021/03/15 00:13:09;;;;;;;4.55;2.02;;;;;;;10.19;100.00;101482.34;1829188;76;936666;-76
2021/03/15 00:15:39;;;;;;;2.23;1.63;;;;;;;10.20;100.00;101484.02;1841453;76;934729;-77
2021/03/15 00:18:09;;;;;;;3.35;1.75;;;;;;;10.21;100.00;101490.71;1829487;76;935388;-77
2021/03/15 00:20:39;;;;;;;4.63;1.50;;;;;;;10.26;100.00;101489.36;1841500;76;934730;-77
2021/03/15 00:23:10;;;;;;;4.08;2.02;;;;;;;10.22;100.00;101491.00;1829533;76;936530;-77
2021/03/15 00:25:40;;;;;;;4.80;1.63;;;;;;;10.16;100.00;101488.44;1841299;76;934604;-77
2021/03/15 00:28:11;;;;;;;4.93;2.07;;;;;;;10.16;100.00;101488.44;1829376;76;936545;-77
2021/03/15 00:30:41;;;;;;;5.05;2.10;;;;;;;10.21;100.00;101500.97;1841243;76;934686;-76
2021/03/15 00:33:11;;;;;;;3.33;1.67;;;;;;;10.22;100.00;101499.33;1829294;76;936468;-76
2021/03/15 00:35:41;;;;;;;6.47;2.37;;;;;;;10.24;100.00;101500.43;1841621;76;934607;-76
2021/03/15 00:38:11;;;;;;;5.77;1.97;;;;;;;10.23;100.00;101502.91;1829243;76;936527;-77
2021/03/15 00:40:43;;;;;;;5.53;1.70;;;;;;;10.24;100.00;101506.83;1841209;76;934699;-76
2021/03/15 00:43:13;;;;;;;4.13;1.87;;;;;;;10.11;100.00;101510.57;1829328;76;935411;-77
2021/03/15 00:45:42;;;;;;;5.37;1.80;;;;;;;10.11;100.00;101510.57;1841519;76;934729;-77
2021/03/15 00:48:12;;;;;;;3.13;1.73;;;;;;;10.12;100.00;101508.92;1829335;76;936582;-77
2021/03/15 00:50:42;;;;;;;3.70;1.53;;;;;;;10.11;100.00;101510.57;1841467;76;934646;-77
2021/03/15 00:53:12;;;;;;;3.50;1.77;;;;;;;10.15;100.00;101502.87;1829294;76;936447;-77
2021/03/15 00:55:42;;;;;;;4.67;1.83;;;;;;;10.12;100.00;101513.09;1841361;76;934585;-76
2021/03/15 00:58:12;;;;;;;3.97;1.70;;;;;;;10.14;100.00;101523.94;1829359;76;936552;-77
2021/03/15 01:00:45;;;;;;;3.53;1.37;;;;;;;10.17;100.00;101514.55;1841380;76;934657;-77
2021/03/15 01:03:14;;;;;;;3.43;1.80;;;;;;;10.20;100.00;101520.95;1829185;76;936461;-77
2021/03/15 01:05:47;;;;;;;4.63;2.20;;;;;;;10.18;100.00;101520.41;1841332;76;934792;-77
2021/03/15 01:08:18;;;;;;;4.73;1.80;;;;;;;10.21;100.00;101530.12;1841424;76;935681;-77
2021/03/15 01:10:49;;;;;;;4.43;2.03;;;;;;;10.18;100.00;101523.73;1841580;76;934564;-77
2021/03/15 01:13:19;;;;;;;4.43;1.60;;;;;;;10.11;100.00;101525.29;1841340;76;936638;-77
2021/03/15 01:15:50;;;;;;;3.67;1.67;;;;;;;10.04;100.00;101518.59;1841366;76;934579;-76
2021/03/15 01:18:19;;;;;;;4.87;1.80;;;;;;;9.96;100.00;101513.53;1841306;76;936437;-76
2021/03/15 01:20:49;;;;;;;5.13;1.80;;;;;;;9.95;100.00;101516.56;1841258;76;932527;-76
2021/03/15 01:23:19;;;;;;;5.27;2.07;;;;;;;10.00;100.00;101521.61;1841271;76;934543;-76
2021/03/15 01:25:49;;;;;;;5.57;1.70;;;;;;;10.00;100.00;101522.16;1841167;76;933746;-76
2021/03/15 01:28:20;;;;;;;6.07;2.13;;;;;;;10.04;100.00;101521.37;1841169;76;936732;-76
2021/03/15 01:30:51;;;;;;;4.50;1.80;;;;;;;10.00;100.00;101524.94;1841327;76;934937;-77
2021/03/15 01:33:20;;;;;;;5.10;2.23;;;;;;;10.03;100.00;101532.72;1841188;76;935741;-76
2021/03/15 01:35:50;;;;;;;6.57;2.10;;;;;;;9.95;100.00;101531.28;1841367;76;934558;-76
2021/03/15 01:38:21;;;;;;;5.23;1.60;;;;;;;10.09;100.00;101525.28;1841351;76;934564;-75
2021/03/15 01:40:51;;;;;;;4.37;2.40;;;;;;;10.06;100.00;101532.19;1841367;76;934696;-75
2021/03/15 01:43:21;;;;;;;4.13;1.90;;;;;;;10.12;100.00;101528.91;1841162;76;936630;-76
2021/03/15 01:45:50;;;;;;;4.90;1.97;;;;;;;10.13;100.00;101531.98;1841246;76;934631;-77
2021/03/15 01:48:20;;;;;;;6.80;2.77;;;;;;;10.07;100.00;101538.03;1841301;76;935475;-76
2021/03/15 01:50:51;;;;;;;4.17;1.70;;;;;;;10.12;100.00;101541.40;1841286;76;934414;-79
2021/03/15 01:53:22;;;;;;;3.57;1.90;;;;;;;10.15;100.00;101546.41;1841210;76;936504;-77
2021/03/15 01:55:53;;;;;;;5.25;2.15;;;;;;;10.07;100.00;101551.91;1829035;76;936428;-77
2021/03/15 01:58:22;;;;;;;6.23;2.07;;;;;;;10.11;100.00;101554.98;1840412;76;936428;-77
2021/03/15 02:00:54;;;;;;;3.80;1.90;;;;;;;10.10;100.00;101563.86;1829151;76;936505;-77
2021/03/15 02:03:25;;;;;;;4.30;1.87;;;;;;;10.10;100.00;101558.31;1841122;76;936555;-75
2021/03/15 02:05:55;;;;;;;4.80;2.03;;;;;;;9.98;100.00;101553.49;1829265;76;936505;-75
2021/03/15 02:08:25;;;;;;;4.63;1.87;;;;;;;10.00;100.00;101553.53;1841293;76;934394;-75
2021/03/15 02:10:55;;;;;;;6.67;1.57;;;;;;;9.94;100.00;101561.52;1829239;76;935732;-75
2021/03/15 02:13:47;;;;;;;3.97;1.90;;;;;;;10.02;100.00;101562.41;1841323;76;934848;-75
2021/03/15 02:16:22;;;;;;;6.70;2.13;;;;;;;10.02;100.00;101567.12;1841189;76;936695;-75
2021/03/15 02:18:58;;;;;;;7.10;2.37;;;;;;;10.06;100.00;101546.91;1831906;76;936621;-75
2021/03/15 02:22:04;;;;;;;4.17;1.93;;;;;;;10.07;100.00;101549.13;1841519;76;936528;-76
2021/03/15 02:24:39;;;;;;;5.43;1.97;;;;;;;10.14;100.00;101546.15;1841297;76;936529;-77
2021/03/15 02:27:58;;;;;;;5.60;2.27;;;;;;;10.17;100.00;101541.48;1830998;76;936636;-76
2021/03/15 02:30:46;;;;;;;5.87;2.17;;;;;;;10.09;100.00;101542.78;1806830;78;936618;-77
2021/03/15 02:33:50;;;;;;;6.03;2.43;;;;;;;9.99;100.00;101550.46;1794371;78;985781;-76
2021/03/15 02:36:21;;;;;;;5.03;1.77;;;;;;;9.97;100.00;101549.03;1805717;78;933799;-76
2021/03/15 02:38:53;;;;;;;8.20;2.80;;;;;;;9.88;100.00;101540.94;1807043;78;932557;-76
2021/03/15 02:41:23;;;;;;;6.20;2.30;;;;;;;9.87;100.00;101544.25;1807150;78;934927;-76
2021/03/15 02:43:56;;;;;;;6.50;2.07;;;;;;;9.84;100.00;101553.08;1795181;78;934490;-77
2021/03/15 02:46:29;;;;;;;6.63;2.50;;;;;;;9.87;100.00;101552.58;1806925;78;934582;-77
2021/03/15 02:49:02;;;;;;;5.78;2.22;;;;;;;9.75;100.00;101554.69;1795069;78;933823;-76
2021/03/15 02:51:35;;;;;;;6.00;2.20;;;;;;;9.58;100.00;101555.34;1807040;78;934539;-76
2021/03/15 02:54:08;;;;;;;8.28;2.40;;;;;;;9.63;100.00;101554.56;1795346;78;934448;-76
2021/03/15 02:56:41;;;;;;;4.17;1.63;;;;;;;9.57;100.00;101553.66;1806998;78;932698;-76
2021/03/15 02:59:12;;;;;;;5.60;2.30;;;;;;;9.52;100.00;101568.31;1795201;78;934406;-76
2021/03/15 03:01:45;;;;;;;4.87;2.40;;;;;;;9.65;100.00;101571.22;1806955;78;932527;-77
2021/03/15 03:04:17;;;;;;;6.47;2.40;;;;;;;9.62;100.00;101575.91;1799490;77;933496;-76
2021/03/15 03:06:49;;;;;;;4.67;2.30;;;;;;;9.60;100.00;101575.32;1841184;76;932639;-78
2021/03/15 03:09:20;;;;;;;6.30;2.57;;;;;;;9.72;100.00;101571.84;1841361;76;934593;-77
2021/03/15 03:11:51;;;;;;;6.70;2.27;;;;;;;9.82;100.00;101577.50;1841100;76;931665;-77
2021/03/15 03:14:22;;;;;;;3.83;2.60;;;;;;;9.87;100.00;101575.33;1841069;76;934473;-78
2021/03/15 03:16:54;;;;;;;5.17;2.47;;;;;;;9.79;100.00;101575.26;1829238;76;934532;-79
2021/03/15 03:19:42;;;;;;;7.37;3.40;;;;;;;9.74;100.00;101579.91;1835167;77;932624;-77
2021/03/15 03:22:16;;;;;;;6.90;3.27;;;;;;;9.65;100.00;101583.70;1823891;77;934544;-77
2021/03/15 03:24:47;;;;;;;7.20;2.93;;;;;;;9.67;100.00;101584.84;1835956;77;932495;-77
2021/03/15 03:27:18;;;;;;;10.40;3.80;;;;;;;9.71;100.00;101590.16;1835877;77;934596;-77
2021/03/15 03:29:49;;;;;;;7.70;3.03;;;;;;;9.69;100.00;101595.11;1835843;77;934711;-78
2021/03/15 03:32:21;;;;;;;9.50;3.17;;;;;;;9.83;100.00;101590.28;1835876;77;933477;-78
2021/03/15 03:34:51;;;;;;;7.57;3.33;;;;;;;9.70;100.00;101594.02;1835775;77;932374;-77
2021/03/15 03:37:21;;;;;;;7.80;3.20;;;;;;;9.77;100.00;101594.09;1835889;77;934521;-77
2021/03/15 03:39:53;;;;;;;8.87;3.13;;;;;;;9.74;100.00;101602.95;1833836;77;934561;-78
2021/03/15 03:42:23;;;;;;;13.43;3.53;;;;;;;9.76;100.00;101596.57;1835361;77;934439;-77
2021/03/15 03:44:54;;;;;;;6.13;2.80;;;;;;;9.82;100.00;101592.77;1823738;77;936637;-77
2021/03/15 03:47:26;;;;;;;9.23;3.90;;;;;;;9.78;100.00;101600.48;1835992;77;934529;-77
2021/03/15 03:49:57;;;;;;;10.57;3.97;;;;;;;9.73;100.00;101601.80;1823719;77;934451;-77
2021/03/15 03:52:30;;;;;;;10.83;3.50;;;;;;;9.66;100.00;101603.41;1891022;73;936729;-76
2021/03/15 03:55:03;;;;;;;9.73;3.72;;;;;;;9.70;100.00;101612.89;1885097;73;938567;-77
2021/03/15 03:57:36;;;;;;;9.30;4.00;;;;;;;9.64;100.00;101611.69;1897919;73;933386;-76
2021/03/15 04:00:11;;;;;;;9.23;3.80;;;;;;;9.64;100.00;101614.47;1885413;73;933357;-76
2021/03/15 04:02:45;;;;;;;7.37;3.13;;;;;;;9.71;100.00;101621.51;1897805;73;932525;-76
2021/03/15 04:05:20;;;;;;;9.35;3.87;;;;;;;9.72;100.00;101612.61;1885280;73;934833;-75
2021/03/15 04:07:54;;;;;;;12.93;4.13;;;;;;;9.72;100.00;101619.00;1897921;73;932529;-75
2021/03/15 04:10:26;;;;;;;11.23;3.63;;;;;;;9.72;100.00;101617.61;1897762;73;936515;-75
2021/03/15 04:12:59;;;;;;;9.45;3.92;;;;;;;9.71;100.00;101624.83;1885401;73;936444;-75
2021/03/15 04:15:29;;;;;;;12.23;3.80;;;;;;;9.67;100.00;101627.27;1897928;73;934478;-75
2021/03/15 04:18:02;;;;;;;9.20;3.42;;;;;;;9.70;100.00;101641.17;1885196;73;936713;-76
2021/03/15 04:20:35;;;;;;;9.67;3.70;;;;;;;9.67;100.00;101640.32;1897670;73;934508;-75
2021/03/15 04:23:08;;;;;;;13.55;4.25;;;;;;;9.64;100.00;101633.87;1885520;73;934460;-76
2021/03/15 04:25:40;;;;;;;14.33;4.40;;;;;;;9.58;100.00;101638.55;1897732;73;934545;-77
2021/03/15 04:28:11;;;;;;;11.43;4.33;;;;;;;9.58;100.00;101648.27;1885424;73;936584;-77
2021/03/15 04:30:44;;;;;;;13.33;3.70;;;;;;;9.71;100.00;101652.57;1897705;73;934399;-75
2021/03/15 04:33:14;;;;;;;11.20;4.00;;;;;;;9.73;100.00;101652.59;1885086;73;936585;-76
2021/03/15 04:35:45;;;;;;;7.53;3.47;;;;;;;9.74;100.00;101654.81;1897759;73;934511;-76
2021/03/15 04:38:16;;;;;;;9.50;3.80;;;;;;;9.70;100.00;101660.05;1885224;73;934466;-77
2021/03/15 04:40:49;;;;;;;9.80;3.53;;;;;;;9.76;100.00;101659.54;1897894;73;932572;-76
2021/03/15 04:43:20;;;;;;;12.90;3.83;;;;;;;9.81;100.00;101652.12;1897787;73;934599;-76
2021/03/15 04:45:52;;;;;;;12.13;3.83;;;;;;;9.87;100.00;101655.80;1897710;73;934799;-76
2021/03/15 04:48:24;;;;;;;11.50;3.97;;;;;;;9.91;100.00;101665.28;1897658;73;936553;-76
2021/03/15 04:50:57;;;;;;;11.15;3.58;;;;;;;9.86;100.00;101668.83;1885300;73;936451;-76
2021/03/15 04:53:28;;;;;;;9.87;3.73;;;;;;;9.83;100.00;101683.23;1897854;73;936448;-76
2021/03/15 04:56:01;;;;;;;10.10;3.65;;;;;;;9.84;100.00;101684.89;1885687;73;934393;-76
2021/03/15 04:58:32;;;;;;;11.20;3.77;;;;;;;9.78;100.00;101693.43;1898150;73;936619;-76
2021/03/15 05:01:04;;;;;;;12.18;3.98;;;;;;;9.81;100.00;101689.58;1873143;73;936730;-76
2021/03/15 05:03:36;;;;;;;16.47;4.13;;;;;;;9.81;100.00;101692.90;1897792;73;936500;-76
2021/03/15 05:06:08;;;;;;;14.37;3.80;;;;;;;9.87;100.00;101701.04;1885242;73;935714;-76
2021/03/15 05:08:41;;;;;;;10.87;3.80;;;;;;;9.86;100.00;101695.73;1897958;73;934743;-76
2021/03/15 05:11:12;;;;;;;10.97;3.60;;;;;;;9.80;100.00;101700.38;1885752;73;936514;-76
2021/03/15 05:13:43;;;;;;;12.73;3.97;;;;;;;9.75;100.00;101703.12;1898013;73;933723;-75
2021/03/15 05:16:14;;;;;;;12.23;4.37;;;;;;;9.66;100.00;101703.28;1885414;73;936670;-75
2021/03/15 05:18:45;;;;;;;9.30;3.30;;;;;;;9.67;100.00;101704.94;1897875;73;934652;-76
2021/03/15 05:21:15;;;;;;;10.83;3.67;;;;;;;9.66;100.00;101706.59;1885423;73;934455;-75
2021/03/15 05:23:46;;;;;;;7.40;3.67;;;;;;;9.48;100.00;101713.30;1897857;73;934616;-75
2021/03/15 05:26:17;;;;;;;11.33;4.00;;;;;;;9.46;100.00;101723.25;1885696;73;934367;-76
2021/03/15 05:28:49;;;;;;;11.23;3.40;;;;;;;9.46;100.00;101720.48;1897952;73;934640;-76
2021/03/15 05:31:19;;;;;;;9.00;3.57;;;;;;;9.51;100.00;101728.03;1897962;73;935436;-77
2021/03/15 05:33:51;;;;;;;11.77;4.13;;;;;;;9.46;100.00;101722.41;1898055;73;932493;-78
2021/03/15 05:36:22;;;;;;;11.27;3.73;;;;;;;9.54;100.00;101728.34;1898060;73;936614;-78
2021/03/15 05:38:52;;;;;;;12.07;4.20;;;;;;;9.53;100.00;101728.08;1888237;73;936790;-78
2021/03/15 05:41:26;;;;;;;7.93;3.37;;;;;;;9.57;100.00;101736.18;1842599;76;936816;-78
2021/03/15 05:44:03;;;;;;;13.33;3.83;;;;;;;9.62;100.00;101739.57;1828155;76;934531;-78
2021/03/15 05:47:19;;;;;;;14.67;4.07;;;;;;;9.60;100.00;101740.36;1841815;76;936547;-78
2021/03/15 05:50:17;;;;;;;12.60;4.40;;;;;;;9.57;100.00;101743.66;1840780;76;934897;-77
2021/03/15 05:52:57;;;;;;;11.30;3.47;;;;;;;9.56;100.00;101747.52;1841419;75;934912;-78
2021/03/15 05:55:54;;;;;;;11.27;4.13;;;;;;;9.56;100.00;101751.68;1840936;76;936489;-78
2021/03/15 05:59:03;;;;;;;11.07;3.87;;;;;;;9.56;100.00;101753.06;1841492;76;936635;-76
2021/03/15 06:02:05;;;;;;;14.80;3.50;;;;;;;9.54;100.00;101761.63;1841033;75;936372;-76
2021/03/15 06:04:49;;;;;;;11.10;3.83;;;;;;;9.53;100.00;101766.91;1830140;76;936581;-76
2021/03/15 06:07:23;;;;;;;12.00;3.90;;;;;;;9.54;100.00;101769.95;1841491;76;936678;-77
2021/03/15 06:10:04;;;;;;;11.33;3.60;;;;;;;9.54;100.00;101759.44;1829507;76;935419;-76
2021/03/15 06:12:49;;;;;;;13.83;3.97;;;;;;;9.50;100.00;101761.85;1841333;76;935518;-76
2021/03/15 06:15:22;;;;;;;9.87;3.97;;;;;;;9.46;100.00;101767.62;1841247;76;936641;-76
2021/03/15 06:17:53;;;;;;;15.88;4.17;;;;;;;9.44;100.00;101768.45;1831658;76;933703;-77
2021/03/15 06:20:24;;;;;;;13.37;4.70;;;;;;;9.36;100.00;101779.97;1898021;74;936530;-76
2021/03/15 06:22:55;;;;;;;11.50;4.00;;;;;;;9.29;100.00;101775.13;1885285;73;936963;-76
2021/03/15 06:25:26;;;;;;;10.40;3.70;;;;;;;9.30;100.00;101777.36;1897927;73;936694;-76
2021/03/15 06:27:57;;;;;;;10.17;3.80;;;;;;;9.25;100.00;101789.21;1885336;73;936765;-76
2021/03/15 06:30:28;;;;;;;9.37;3.87;;;;;;;9.31;100.00;101792.91;1897957;73;935497;-76
2021/03/15 06:33:00;;;;;;;9.95;3.92;;;;;;;9.23;100.00;101796.12;1885582;73;934353;-76
2021/03/15 06:35:33;;;;;;;9.90;3.80;;;;;;;9.25;100.00;101805.00;1898025;73;934476;-76
2021/03/15 06:38:04;;;;;;;7.12;3.70;;;;;;;9.26;100.00;101806.14;1885830;73;934845;-76
2021/03/15 06:40:35;;;;;;;12.93;4.00;;;;;;;9.35;100.00;101810.72;1898049;73;933573;-76
2021/03/15 06:43:06;;;;;;;11.23;4.50;;;;;;;9.40;100.00;101810.26;1885541;73;935530;-76
2021/03/15 06:45:36;;;;;;;11.97;4.00;;;;;;;9.42;100.00;101813.59;1898140;74;936736;-75
2021/03/15 06:48:07;;;;;;;9.70;3.90;;;;;;;9.41;100.00;101819.42;1885454;73;935471;-75
2021/03/15 06:50:37;;;;;;;9.23;3.60;;;;;;;9.47;100.00;101821.16;1898080;73;931498;-75
2021/03/15 06:53:07;;;;;;;13.20;4.20;;;;;;;9.52;100.00;101819.85;1885620;73;934500;-74
2021/03/15 06:55:48;;;;;;;10.27;3.80;;;;;;;9.53;100.00;101825.70;1898007;73;934057;-75
2021/03/15 06:58:30;;;;;;;11.07;3.30;;;;;;;9.56;100.00;101836.28;1897815;73;936621;-74
2021/03/15 07:01:20;;;;;;;12.55;4.03;;;;;;;9.62;100.00;101827.49;1885460;74;936853;-75
2021/03/15 07:03:52;;;;;;;11.43;3.60;;;;;;;9.59;100.00;101846.31;1897781;73;934008;-76
2021/03/15 07:06:22;;;;;;;12.03;3.60;;;;;;;9.62;100.00;101844.98;1897809;73;935469;-76
2021/03/15 07:08:55;;;;;;;12.43;4.03;;;;;;;9.62;100.00;101846.37;1890547;73;936525;-78
2021/03/15 07:11:27;;;;;;;17.70;4.47;;;;;;;9.59;100.00;101841.31;1883623;74;935472;-75
2021/03/15 07:13:57;;;;;;;10.07;3.57;;;;;;;9.71;100.00;101866.19;1885526;74;936651;-76
2021/03/15 07:16:30;;;;;;;13.77;3.83;;;;;;;9.69;100.00;101866.44;1897874;73;936621;-75
2021/03/15 07:19:02;;;;;;;10.48;3.60;;;;;;;9.73;100.00;101857.05;1885434;73;936521;-74
2021/03/15 07:21:34;;;;;;;12.27;3.60;;;;;;;9.75;100.00;101859.04;1897713;73;936577;-75
2021/03/15 07:24:06;;;;;;;15.77;3.70;;;;;;;9.82;100.00;101868.02;1885272;73;935454;-76
2021/03/15 07:26:39;;;;;;;13.27;4.13;;;;;;;9.85;100.00;101868.33;1898020;73;936576;-76
2021/03/15 07:29:13;;;;;;;15.23;4.22;;;;;;;9.83;100.00;101878.02;1885372;73;936613;-76
2021/03/15 07:31:45;;;;;;;11.80;3.67;;;;;;;9.84;100.00;101879.13;1897865;73;934564;-77
2021/03/15 07:34:20;;;;;;;16.73;4.63;;;;;;;9.83;100.00;101880.25;1885557;73;936611;-77
2021/03/15 07:36:56;;;;;;;14.13;3.60;;;;;;;9.88;100.00;101882.27;1897831;73;934614;-76
2021/03/15 07:39:28;;;;;;;15.80;4.27;;;;;;;9.87;100.00;101879.19;1897735;73;936612;-80
2021/03/15 07:42:01;;;;;;;13.80;4.77;;;;;;;9.89;100.00;101887.54;1885454;73;936688;-77
2021/03/15 07:44:32;;;;;;;13.73;4.40;;;;;;;9.92;100.00;101886.20;1897640;74;936724;-75
2021/03/15 07:47:05;;;;;;;11.78;3.55;;;;;;;9.95;100.00;101889.30;1885401;73;936578;-74
2021/03/15 07:49:38;;;;;;;8.37;3.57;;;;;;;9.94;100.00;101899.27;1897628;73;936842;-75
2021/03/15 07:52:09;;;;;;;9.93;4.00;;;;;;;9.95;100.00;101905.95;1885778;73;934433;-74
2021/03/15 07:54:41;;;;;;;14.30;3.97;;;;;;;9.96;100.00;101915.97;1897971;73;932624;-75
2021/03/15 07:57:22;;;;;;;11.70;3.57;;;;;;;10.01;100.00;101907.69;1885444;73;936616;-75
2021/03/15 07:59:54;;;;;;;14.20;4.20;;;;;;;10.05;100.00;101913.03;1885320;73;938610;-77
2021/03/15 08:02:26;;;;;;;11.47;3.47;;;;;;;10.08;100.00;101921.95;1897604;73;938662;-75
2021/03/15 08:04:57;;;;;;;12.83;3.77;;;;;;;10.08;100.00;101921.95;1885338;73;938888;-76
2021/03/15 08:07:27;;;;;;;12.07;4.63;;;;;;;10.14;100.00;101924.53;1897613;73;938583;-77
2021/03/15 08:10:00;;;;;;;13.32;4.20;;;;;;;10.19;100.00;101932.13;1885412;73;938573;-76
2021/03/15 08:12:33;;;;;;;14.13;4.10;;;;;;;10.25;100.00;101932.50;1897714;73;938695;-75
2021/03/15 08:15:06;;;;;;;11.65;3.55;;;;;;;10.30;100.00;101934.81;1885399;73;938774;-76
2021/03/15 08:17:38;;;;;;;14.27;4.10;;;;;;;10.45;100.00;101927.20;1897798;73;937574;-74
2021/03/15 08:20:13;;;;;;;17.13;4.13;;;;;;;10.66;100.00;101930.53;1885217;73;938753;-75
2021/03/15 08:22:46;;;;;;;11.90;4.23;;;;;;;10.59;100.00;101933.22;1897773;73;936787;-73
2021/03/15 08:25:17;;;;;;;13.97;4.50;;;;;;;10.53;100.00;101947.59;1885403;73;939002;-76
2021/03/15 08:27:49;;;;;;;11.03;4.40;;;;;;;10.56;100.00;101947.09;1897652;73;936730;-75
2021/03/15 08:30:22;;;;;;;12.15;3.90;;;;;;;10.56;100.00;101939.30;1897960;73;938738;-75
2021/03/15 08:32:53;;;;;;;12.77;4.00;;;;;;;10.49;100.00;101946.42;1888916;73;948486;-76
2021/03/15 08:35:24;;;;;;;12.47;4.07;;;;;;;10.36;100.00;101940.70;1885236;74;938687;-75
2021/03/15 08:37:59;;;;;;;13.63;4.27;;;;;;;10.33;100.00;101955.11;1885509;73;938742;-78
2021/03/15 08:40:57;;;;;;;17.73;4.83;;;;;;;10.32;100.00;101961.76;1897912;73;939156;-75
2021/03/15 08:43:38;;;;;;;16.50;4.00;;;;;;;10.38;100.00;101961.29;1897945;73;938704;-76
2021/03/15 08:46:09;;;;;;;13.90;4.85;;;;;;;10.48;100.00;101959.47;1885569;73;938665;-75
2021/03/15 08:48:57;;;;;;;13.87;4.07;;;;;;;10.59;100.00;101973.51;1898025;73;936996;-75
2021/03/15 08:51:50;;;;;;;14.97;4.23;;;;;;;10.69;100.00;101966.16;1897805;73;938745;-75
2021/03/15 08:54:41;;;;;;;12.47;3.83;;;;;;;10.77;100.00;101974.03;1897821;73;938643;-75
2021/03/15 08:57:32;;;;;;;16.10;4.63;;;;;;;10.95;100.00;101973.67;1846985;75;940536;-76
2021/03/15 09:00:04;;;;;;;12.80;4.27;;;;;;;10.93;100.00;101973.11;1814345;77;938777;-76
2021/03/15 09:02:38;;;;;;;13.27;4.63;;;;;;;10.90;100.00;101978.36;1808450;77;938783;-75
2021/03/15 09:05:25;;;;;;;15.85;4.22;;;;;;;10.87;100.00;101982.48;1814282;77;938612;-75
2021/03/15 09:07:56;;;;;;;13.67;4.10;;;;;;;10.86;100.00;101992.48;1815926;77;938699;-75
2021/03/15 09:10:44;;;;;;;11.03;4.37;;;;;;;10.84;100.00;101987.72;1826420;77;938985;-74
2021/03/15 09:13:39;;;;;;;12.87;3.77;;;;;;;10.84;100.00;101991.89;1798868;77;938628;-74
2021/03/15 09:16:09;;;;;;;10.80;3.83;;;;;;;10.86;100.00;101991.09;1814170;77;942564;-75
2021/03/15 09:18:56;;;;;;;15.00;4.50;;;;;;;10.93;100.00;102002.84;1827680;77;937017;-75
2021/03/15 09:21:50;;;;;;;15.17;3.87;;;;;;;11.06;100.00;101994.66;1826252;77;938700;-74
2021/03/15 09:24:50;;;;;;;9.30;3.97;;;;;;;11.14;100.00;102003.92;1827733;77;938958;-74
2021/03/15 09:27:35;;;;;;;9.33;3.67;;;;;;;11.27;100.00;101997.95;1826142;77;936725;-75
2021/03/15 09:30:15;;;;;;;14.53;4.03;;;;;;;11.35;100.00;101994.69;1815959;77;936674;-75
2021/03/15 09:32:47;;;;;;;12.57;3.93;;;;;;;11.40;100.00;102002.55;1826371;77;936815;-75
2021/03/15 09:35:24;;;;;;;16.80;4.23;;;;;;;11.36;100.00;101994.44;1827930;77;938891;-75
2021/03/15 09:37:59;;;;;;;11.60;3.77;;;;;;;11.40;100.00;101987.25;1814313;77;938984;-74
2021/03/15 09:40:33;;;;;;;13.73;4.03;;;;;;;11.46;100.00;101993.71;1827694;77;938639;-74
2021/03/15 09:43:04;;;;;;;12.37;4.05;;;;;;;11.55;100.00;101993.49;1814248;77;938876;-74
2021/03/15 09:45:36;;;;;;;14.77;3.90;;;;;;;11.60;100.00;101999.11;1827765;77;938695;-74
2021/03/15 09:48:17;;;;;;;13.15;3.52;;;;;;;11.75;100.00;102003.47;1814435;77;938775;-74
2021/03/15 09:50:50;;;;;;;10.97;4.40;;;;;;;11.79;100.00;102004.62;1841221;76;936843;-75
2021/03/15 09:53:21;;;;;;;10.37;3.57;;;;;;;11.60;100.00;102008.01;1841196;76;938717;-74
2021/03/15 09:55:52;;;;;;;11.60;3.47;;;;;;;11.51;100.00;102009.03;1841186;76;936845;-74
2021/03/15 09:58:22;;;;;;;14.07;3.80;;;;;;;11.56;100.00;102009.64;1840494;76;938706;-74
2021/03/15 10:00:54;;;;;;;11.53;3.87;;;;;;;11.72;100.00;102013.73;1829080;76;938648;-75
2021/03/15 10:03:26;;;;;;;11.97;3.37;;;;;;;11.72;100.00;102008.16;1841248;76;938814;-75
2021/03/15 10:05:59;;;;;;;12.47;4.20;;;;;;;11.97;100.00;102010.89;1829022;76;938577;-74
2021/03/15 10:08:29;;;;;;;12.90;3.77;;;;;;;12.07;100.00;102016.52;1840991;76;938710;-75
2021/03/15 10:11:00;;;;;;;12.53;3.42;;;;;;;12.07;100.00;102017.36;1829240;76;938833;-75
2021/03/15 10:13:30;;;;;;;11.63;3.50;;;;;;;12.13;100.00;102017.70;1842559;76;938616;-74
2021/03/15 10:16:07;;;;;;;13.75;3.10;;;;;;;12.14;100.00;102017.16;1836601;76;938907;-74
2021/03/15 10:18:37;;;;;;;12.90;4.10;;;;;;;12.06;100.00;102024.06;1837682;76;938925;-75
2021/03/15 10:21:07;;;;;;;10.37;3.47;;;;;;;12.07;100.00;102031.29;1829148;76;938685;-75
2021/03/15 10:23:42;;;;;;;10.13;3.87;;;;;;;12.04;100.00;102023.48;1841201;76;936944;-74
2021/03/15 10:26:15;;;;;;;13.60;3.60;;;;;;;12.04;100.00;102024.87;1828988;76;938884;-77
2021/03/15 10:28:50;;;;;;;11.30;3.80;;;;;;;12.04;100.00;102024.03;1841336;76;936740;-77
2021/03/15 10:31:22;;;;;;;13.00;3.87;;;;;;;12.06;100.00;102024.61;1841192;76;938774;-77
2021/03/15 10:33:53;;;;;;;11.20;3.30;;;;;;;12.23;100.00;102030.88;1832254;76;937417;-77
2021/03/15 10:36:24;;;;;;;13.37;4.00;;;;;;;12.20;100.00;102023.03;1897758;73;938727;-77
2021/03/15 10:38:56;;;;;;;10.30;3.87;;;;;;;12.18;100.00;102021.08;1885074;73;938865;-77
2021/03/15 10:41:26;;;;;;;13.00;3.50;;;;;;;12.13;100.00;102021.88;1897737;73;938950;-77
2021/03/15 10:44:00;;;;;;;9.13;3.47;;;;;;;12.09;100.00;102032.42;1885518;73;938674;-77
2021/03/15 10:46:30;;;;;;;11.83;3.87;;;;;;;12.21;100.00;102026.95;1897997;73;936698;-76
2021/03/15 10:49:02;;;;;;;11.70;3.00;;;;;;;12.28;100.00;102021.13;1885355;73;938639;-77
2021/03/15 10:51:45;;;;;;;7.10;3.00;;;;;;;12.29;100.00;102026.45;1895587;73;938841;-77
2021/03/15 10:54:32;;;;;;;9.83;3.20;;;;;;;12.25;100.00;102028.64;1885430;73;936668;-77
2021/03/15 10:57:19;;;;;;;9.48;3.30;;;;;;;12.32;100.00;102036.23;1885453;73;937043;-77
2021/03/15 10:59:51;;;;;;;8.43;2.83;;;;;;;12.37;100.00;102037.64;1897873;73;934620;-78
2021/03/15 11:02:25;;;;;;;8.77;2.80;;;;;;;12.30;100.00;102032.86;1897521;73;936877;-77
2021/03/15 11:04:57;;;;;;;9.67;3.20;;;;;;;12.33;100.00;102036.50;1885407;73;936753;-77
2021/03/15 11:07:29;;;;;;;11.90;3.40;;;;;;;12.40;100.00;102048.27;1897844;73;936636;-77
2021/03/15 11:10:03;;;;;;;10.03;3.02;;;;;;;12.21;100.00;102056.20;1885183;73;938692;-77
2021/03/15 11:12:54;;;;;;;8.73;2.90;;;;;;;12.15;100.00;102055.05;1897818;73;938819;-77
2021/03/15 11:15:42;;;;;;;12.47;3.33;;;;;;;12.17;100.00;102059.78;1897958;73;936612;-77
2021/03/15 11:18:14;;;;;;;14.20;3.90;;;;;;;12.32;100.00;102058.53;1883341;73;938610;-77
2021/03/15 11:20:51;;;;;;;11.53;3.20;;;;;;;12.59;100.00;102050.89;1897916;74;936878;-77
2021/03/15 11:23:33;;;;;;;10.07;3.70;;;;;;;12.51;100.00;102052.79;1897846;74;938507;-77
2021/03/15 11:26:07;;;;;;;12.57;3.00;;;;;;;12.59;100.00;102055.62;1885530;73;938627;-77
2021/03/15 11:28:40;;;;;;;14.37;3.73;;;;;;;12.59;100.00;102055.62;1897537;73;938617;-77
2021/03/15 11:31:14;;;;;;;11.78;3.27;;;;;;;12.49;100.00;102056.41;1885594;73;938685;-77
2021/03/15 11:33:52;;;;;;;9.30;3.20;;;;;;;12.60;100.00;102064.27;1898086;73;936859;-76
2021/03/15 11:36:23;;;;;;;12.83;3.17;;;;;;;12.78;100.00;102061.05;1897771;73;936671;-77
2021/03/15 11:38:56;;;;;;;12.33;3.57;;;;;;;12.79;100.00;102064.13;1885560;73;938714;-78
2021/03/15 11:41:27;;;;;;;12.23;3.20;;;;;;;12.85;100.00;102056.05;1897986;73;938904;-77